createdAt,value
2018-01-26T00:02:08.788Z,8.00
2018-01-26T00:04:37.010Z,6.20
2018-01-26T00:07:05.223Z,7.40
2018-01-26T00:09:32.682Z,6.10
2018-01-26T00:12:00.143Z,7.00
2018-01-26T00:14:28.365Z,5.50
2018-01-26T00:16:55.809Z,6.63
2018-01-26T00:19:23.276Z,7.40
2018-01-26T00:21:50.721Z,7.10
2018-01-26T00:24:18.176Z,6.20
2018-01-26T00:26:45.653Z,7.13
2018-01-26T00:29:13.114Z,6.40
2018-01-26T00:31:41.334Z,5.57
2018-01-26T00:34:08.791Z,7.67
2018-01-26T00:36:36.249Z,6.67
2018-01-26T00:39:03.723Z,5.90
2018-01-26T00:41:31.182Z,6.40
2018-01-26T00:44:01.522Z,5.83
2018-01-26T00:46:28.992Z,5.90
2018-01-26T00:48:56.455Z,5.63
2018-01-26T00:51:23.917Z,6.53
2018-01-26T00:53:51.367Z,7.47
2018-01-26T00:56:18.819Z,5.50
2018-01-26T00:58:46.289Z,5.90
2018-01-26T01:01:14.533Z,5.33
2018-01-26T01:03:41.986Z,5.77
2018-01-26T01:06:09.456Z,5.23
2018-01-26T01:08:36.898Z,8.80
2018-01-26T01:11:04.373Z,5.50
2018-01-26T01:13:31.827Z,5.83
2018-01-26T01:15:59.280Z,6.13
2018-01-26T01:18:26.783Z,5.63
2018-01-26T01:20:54.241Z,6.27
2018-01-26T01:23:21.684Z,6.00
2018-01-26T01:25:49.905Z,6.20
2018-01-26T01:28:17.359Z,6.30
2018-01-26T01:30:44.813Z,7.70
2018-01-26T01:33:12.320Z,7.83
2018-01-26T01:35:40.078Z,6.40
2018-01-26T01:38:07.534Z,6.17
2018-01-26T01:40:34.980Z,5.60
2018-01-26T01:43:02.443Z,5.83
2018-01-26T01:45:29.902Z,8.77
2018-01-26T01:47:57.358Z,5.37
2018-01-26T01:50:24.825Z,6.10
2018-01-26T01:52:52.293Z,5.60
2018-01-26T01:55:19.738Z,6.00
2018-01-26T01:57:47.205Z,5.40
2018-01-26T02:00:15.429Z,6.67
2018-01-26T02:02:42.889Z,5.67
2018-01-26T02:05:10.364Z,7.27
2018-01-26T02:07:37.812Z,5.07
2018-01-26T02:10:05.269Z,7.60
2018-01-26T02:12:32.729Z,8.30
2018-01-26T02:15:00.178Z,7.97
2018-01-26T02:17:27.632Z,6.03
2018-01-26T02:19:55.081Z,7.40
2018-01-26T02:22:22.557Z,7.17
2018-01-26T02:25:07.383Z,6.13
2018-01-26T02:27:35.617Z,5.23
2018-01-26T02:30:03.083Z,6.83
2018-01-26T02:32:30.533Z,5.90
2018-01-26T02:34:57.981Z,7.53
2018-01-26T02:37:25.429Z,5.57
2018-01-26T02:39:52.898Z,5.00
2018-01-26T02:42:20.369Z,5.17
2018-01-26T02:44:47.816Z,5.43
2018-01-26T02:47:15.297Z,7.13
2018-01-26T02:49:42.740Z,5.83
2018-01-26T02:52:10.197Z,7.23
2018-01-26T02:54:37.657Z,6.23
2018-01-26T02:57:05.873Z,6.13
2018-01-26T02:59:36.061Z,8.20
2018-01-26T03:02:03.510Z,9.77
2018-01-26T03:04:31.751Z,5.13
2018-01-26T03:06:59.205Z,5.50
2018-01-26T03:09:26.664Z,6.33
2018-01-26T03:11:54.144Z,4.50
2018-01-26T03:14:21.613Z,6.10
2018-01-26T03:16:49.064Z,4.90
2018-01-26T03:19:16.542Z,6.50
2018-01-26T03:21:44.756Z,5.43
2018-01-26T03:24:12.222Z,7.10
2018-01-26T03:26:39.693Z,5.00
2018-01-26T03:29:07.149Z,5.00
2018-01-26T03:31:34.610Z,6.17
2018-01-26T03:34:02.073Z,5.30
2018-01-26T03:36:29.540Z,5.97
2018-01-26T03:38:56.988Z,5.70
2018-01-26T03:41:24.449Z,5.63
2018-01-26T03:43:51.906Z,5.27
2018-01-26T03:46:19.360Z,6.07
2018-01-26T03:48:46.816Z,5.43
2018-01-26T03:51:14.980Z,5.50
2018-01-26T03:53:42.425Z,5.50
2018-01-26T03:56:09.885Z,5.03
2018-01-26T03:58:37.362Z,5.90
2018-01-26T04:01:04.833Z,4.90
2018-01-26T04:03:32.277Z,5.53
2018-01-26T04:05:59.750Z,6.80
2018-01-26T04:08:27.220Z,5.30
2018-01-26T04:10:54.665Z,5.13
2018-01-26T04:13:22.140Z,4.83
2018-01-26T04:15:50.360Z,5.30
2018-01-26T04:18:17.812Z,4.97
2018-01-26T04:20:45.314Z,6.80
2018-01-26T04:23:12.776Z,5.90
2018-01-26T04:25:40.229Z,5.20
2018-01-26T04:28:08.460Z,4.80
2018-01-26T04:30:35.920Z,6.70
2018-01-26T04:33:03.376Z,5.00
2018-01-26T04:35:30.832Z,4.80
2018-01-26T04:37:58.298Z,5.53
2018-01-26T04:40:25.748Z,5.93
2018-01-26T04:42:53.213Z,5.03
2018-01-26T04:45:20.665Z,6.13
2018-01-26T04:47:48.352Z,5.03
2018-01-26T04:50:15.793Z,5.70
2018-01-26T04:52:43.253Z,6.80
2018-01-26T04:55:10.720Z,4.77
2018-01-26T04:57:38.185Z,5.57
2018-01-26T05:00:05.638Z,5.27
2018-01-26T05:02:33.097Z,6.67
2018-01-26T05:05:00.556Z,4.33
2018-01-26T05:07:28.001Z,5.77
2018-01-26T05:09:55.452Z,3.80
2018-01-26T05:12:22.904Z,3.97
2018-01-26T05:14:50.365Z,6.03
2018-01-26T05:17:17.820Z,4.57
2018-01-26T05:19:45.291Z,5.40
2018-01-26T05:22:12.740Z,4.70
2018-01-26T05:24:40.210Z,5.63
2018-01-26T05:27:07.652Z,5.00
2018-01-26T05:29:35.132Z,4.73
2018-01-26T05:32:02.583Z,4.57
2018-01-26T05:34:30.042Z,6.50
2018-01-26T05:36:57.501Z,4.93
2018-01-26T05:39:24.989Z,4.30
2018-01-26T05:41:53.208Z,4.50
2018-01-26T05:44:20.664Z,4.47
2018-01-26T05:46:48.122Z,4.57
2018-01-26T05:49:15.588Z,4.23
2018-01-26T05:51:43.055Z,4.53
2018-01-26T05:54:10.513Z,4.90
2018-01-26T05:56:37.985Z,4.50
2018-01-26T05:59:06.249Z,4.00
2018-01-26T06:01:33.688Z,5.50
2018-01-26T06:04:01.139Z,4.73
2018-01-26T06:06:28.602Z,4.00
2018-01-26T06:08:56.057Z,4.30
2018-01-26T06:11:23.523Z,4.10
2018-01-26T06:13:50.969Z,4.70
2018-01-26T06:16:18.433Z,4.97
2018-01-26T06:18:45.894Z,4.20
2018-01-26T06:21:13.376Z,3.93
2018-01-26T06:23:40.873Z,5.13
2018-01-26T06:26:09.110Z,4.00
2018-01-26T06:28:36.553Z,5.10
2018-01-26T06:31:04.021Z,4.50
2018-01-26T06:33:32.248Z,3.93
2018-01-26T06:35:59.706Z,4.20
2018-01-26T06:38:27.161Z,4.67
2018-01-26T06:40:55.385Z,3.83
2018-01-26T06:43:22.834Z,4.47
2018-01-26T06:45:50.297Z,4.07
2018-01-26T06:48:17.761Z,4.80
2018-01-26T06:50:45.211Z,7.90
2018-01-26T06:53:12.667Z,4.10
2018-01-26T06:55:40.119Z,4.80
2018-01-26T06:58:07.594Z,5.03
2018-01-26T07:00:36.460Z,4.30
2018-01-26T07:03:03.916Z,3.77
2018-01-26T07:05:31.377Z,4.47
2018-01-26T07:07:58.829Z,4.73
2018-01-26T07:10:26.297Z,4.40
2018-01-26T07:12:53.750Z,4.50
2018-01-26T07:15:21.219Z,4.30
2018-01-26T07:17:48.681Z,4.23
2018-01-26T07:20:16.243Z,4.47
2018-01-26T07:22:44.533Z,4.60
2018-01-26T07:25:12.003Z,4.20
2018-01-26T07:27:39.470Z,5.03
2018-01-26T07:30:07.721Z,4.33
2018-01-26T07:32:35.230Z,4.07
2018-01-26T07:35:03.476Z,5.70
2018-01-26T07:37:30.924Z,4.47
2018-01-26T07:39:58.392Z,4.17
2018-01-26T07:42:25.914Z,3.90
2018-01-26T07:44:53.370Z,3.60
2018-01-26T07:47:20.864Z,4.63
2018-01-26T07:49:49.125Z,4.53
2018-01-26T07:52:16.624Z,4.07
2018-01-26T07:54:44.124Z,3.40
2018-01-26T07:57:11.569Z,4.33
2018-01-26T07:59:39.024Z,4.13
2018-01-26T08:02:06.503Z,4.10
2018-01-26T08:04:34.809Z,3.93
2018-01-26T08:07:02.226Z,3.93
2018-01-26T08:09:29.711Z,4.07
2018-01-26T08:11:57.190Z,4.53
2018-01-26T08:14:25.424Z,6.33
2018-01-26T08:16:52.889Z,3.90
2018-01-26T08:19:20.349Z,4.03
2018-01-26T08:21:47.817Z,4.30
2018-01-26T08:24:15.282Z,3.90
2018-01-26T08:26:43.514Z,5.73
2018-01-26T08:29:10.970Z,5.17
2018-01-26T08:31:38.416Z,4.17
2018-01-26T08:34:05.878Z,3.80
2018-01-26T08:36:33.330Z,3.80
2018-01-26T08:39:00.793Z,4.00
2018-01-26T08:41:28.267Z,4.00
2018-01-26T08:43:56.487Z,4.17
2018-01-26T08:46:24.006Z,3.97
2018-01-26T08:48:52.217Z,4.43
2018-01-26T08:51:20.485Z,10.43
2018-01-26T08:53:47.930Z,4.37
2018-01-26T08:56:15.397Z,4.13
2018-01-26T08:58:42.838Z,5.77
2018-01-26T09:01:10.308Z,4.77
2018-01-26T09:03:37.749Z,4.50
2018-01-26T09:06:05.258Z,5.13
2018-01-26T09:08:32.652Z,3.77
2018-01-26T09:11:00.125Z,3.87
2018-01-26T09:13:27.578Z,4.30
2018-01-26T09:15:55.028Z,8.10
2018-01-26T09:18:22.485Z,4.00
2018-01-26T09:20:49.946Z,3.93
2018-01-26T09:23:17.384Z,4.20
2018-01-26T09:25:44.849Z,3.93
2018-01-26T09:28:12.346Z,4.40
2018-01-26T09:30:40.565Z,4.10
2018-01-26T09:33:08.040Z,5.87
2018-01-26T09:35:35.506Z,4.23
2018-01-26T09:38:02.949Z,5.07
2018-01-26T09:40:30.398Z,3.97
2018-01-26T09:42:57.861Z,4.93
2018-01-26T09:45:25.320Z,4.47
2018-01-26T09:47:52.772Z,5.33
2018-01-26T09:50:20.224Z,4.73
2018-01-26T09:52:47.683Z,4.77
2018-01-26T09:55:15.147Z,4.00
2018-01-26T09:57:42.601Z,4.33
2018-01-26T10:00:10.085Z,4.33
2018-01-26T10:02:37.513Z,4.17
2018-01-26T10:05:05.017Z,4.50
2018-01-26T10:07:32.479Z,4.30
2018-01-26T10:09:59.953Z,4.37
2018-01-26T10:12:28.196Z,4.90
2018-01-26T10:14:55.648Z,5.00
2018-01-26T10:17:23.104Z,4.20
2018-01-26T10:19:50.548Z,4.07
2018-01-26T10:22:18.014Z,4.50
2018-01-26T10:24:45.469Z,4.10
2018-01-26T10:27:12.925Z,4.10
2018-01-26T10:29:40.380Z,5.40
2018-01-26T10:32:08.697Z,5.47
2018-01-26T10:34:36.157Z,4.80
2018-01-26T10:37:04.389Z,3.40
2018-01-26T10:39:31.849Z,4.30
2018-01-26T10:41:59.298Z,3.73
2018-01-26T10:44:26.803Z,3.63
2018-01-26T10:46:55.024Z,3.77
2018-01-26T10:49:22.501Z,3.93
2018-01-26T10:51:49.998Z,4.13
2018-01-26T10:54:17.503Z,3.43
2018-01-26T10:56:44.977Z,3.43
2018-01-26T10:59:12.446Z,4.10
2018-01-26T11:01:39.906Z,3.57
2018-01-26T11:04:07.360Z,4.00
2018-01-26T11:06:35.589Z,4.00
2018-01-26T11:09:03.058Z,3.50
2018-01-26T11:11:30.509Z,4.13
2018-01-26T11:13:57.976Z,3.73
2018-01-26T11:16:25.502Z,3.60
2018-01-26T11:18:52.960Z,4.37
2018-01-26T11:21:20.412Z,3.97
2018-01-26T11:23:48.631Z,3.40
2018-01-26T11:26:16.133Z,4.27
2018-01-26T11:28:44.383Z,3.53
2018-01-26T11:31:11.936Z,3.93
2018-01-26T11:33:39.384Z,3.60
2018-01-26T11:36:06.837Z,3.93
2018-01-26T11:38:34.293Z,4.00
2018-01-26T11:41:01.782Z,3.40
2018-01-26T11:43:29.249Z,4.10
2018-01-26T11:45:57.499Z,3.23
2018-01-26T11:48:24.976Z,4.33
2018-01-26T11:50:52.806Z,3.50
2018-01-26T11:53:20.293Z,4.93
2018-01-26T11:55:47.837Z,4.03
2018-01-26T11:58:15.364Z,4.20
2018-01-26T12:00:42.881Z,3.97
2018-01-26T12:03:10.377Z,3.53
2018-01-26T12:05:38.614Z,5.73
2018-01-26T12:08:06.066Z,4.40
2018-01-26T12:10:33.541Z,4.00
2018-01-26T12:13:01.757Z,4.40
2018-01-26T12:15:29.229Z,3.70
2018-01-26T12:17:56.685Z,4.50
2018-01-26T12:20:24.134Z,4.00
2018-01-26T12:22:51.645Z,4.27
2018-01-26T12:25:19.856Z,3.87
2018-01-26T12:27:48.118Z,3.97
2018-01-26T12:30:15.568Z,4.10
2018-01-26T12:32:43.025Z,4.83
2018-01-26T12:35:11.258Z,4.00
2018-01-26T12:37:38.726Z,4.80
2018-01-26T12:40:07.676Z,4.47
2018-01-26T12:42:35.146Z,4.33
2018-01-26T12:45:02.668Z,4.53
2018-01-26T12:47:30.075Z,4.40
2018-01-26T12:49:57.517Z,4.83
2018-01-26T12:52:24.989Z,4.20
2018-01-26T12:54:52.462Z,4.27
2018-01-26T12:57:20.807Z,6.70
2018-01-26T12:59:48.300Z,4.67
2018-01-26T13:02:15.751Z,4.70
2018-01-26T13:04:43.222Z,4.90
2018-01-26T13:07:10.690Z,4.63
2018-01-26T13:09:38.193Z,4.83
2018-01-26T13:12:05.764Z,4.47
2018-01-26T13:14:33.201Z,4.37
2018-01-26T13:17:00.672Z,4.80
2018-01-26T13:19:28.181Z,4.43
2018-01-26T13:21:56.405Z,4.00
2018-01-26T13:24:23.865Z,4.47
2018-01-26T13:26:51.314Z,4.37
2018-01-26T13:29:18.779Z,4.80
2018-01-26T13:31:46.236Z,4.10
2018-01-26T13:34:13.684Z,4.80
2018-01-26T13:36:41.139Z,4.60
2018-01-26T13:39:08.609Z,4.50
2018-01-26T13:41:36.054Z,4.37
2018-01-26T13:44:03.516Z,4.40
2018-01-26T13:46:30.969Z,5.10
2018-01-26T13:48:58.444Z,4.23
2018-01-26T13:51:26.717Z,4.70
2018-01-26T13:53:54.185Z,5.03
2018-01-26T13:56:21.644Z,5.20
2018-01-26T13:58:49.100Z,5.03
2018-01-26T14:01:17.808Z,6.17
2018-01-26T14:03:45.445Z,5.47
2018-01-26T14:06:12.907Z,5.73
2018-01-26T14:08:40.356Z,5.00
2018-01-26T14:11:07.824Z,5.03
2018-01-26T14:13:36.058Z,5.33
2018-01-26T14:16:03.496Z,5.23
2018-01-26T14:18:31.712Z,5.30
2018-01-26T14:20:59.173Z,5.10
2018-01-26T14:23:26.626Z,5.00
2018-01-26T14:25:54.081Z,4.97
2018-01-26T14:28:21.552Z,4.80
2018-01-26T14:30:49.770Z,5.53
2018-01-26T14:33:17.989Z,5.50
2018-01-26T14:35:45.445Z,5.80
2018-01-26T14:38:12.904Z,5.77
2018-01-26T14:40:40.362Z,6.07
2018-01-26T14:43:07.844Z,5.50
2018-01-26T14:45:35.297Z,6.70
2018-01-26T14:48:02.758Z,7.20
2018-01-26T14:50:30.216Z,5.00
2018-01-26T14:52:57.680Z,5.20
2018-01-26T14:55:25.896Z,5.47
2018-01-26T14:57:53.356Z,6.13
2018-01-26T15:00:20.809Z,5.13
2018-01-26T15:02:48.287Z,5.73
2018-01-26T15:05:15.755Z,6.60
2018-01-26T15:07:43.201Z,6.63
2018-01-26T15:10:10.665Z,5.50
2018-01-26T15:12:38.118Z,6.00
2018-01-26T15:15:05.570Z,6.30
2018-01-26T15:17:33.048Z,8.40
2018-01-26T15:20:00.497Z,8.60
2018-01-26T15:22:27.969Z,8.17
2018-01-26T15:24:55.422Z,6.40
2018-01-26T15:27:22.879Z,7.80
2018-01-26T15:29:50.370Z,5.80
2018-01-26T15:32:17.882Z,7.10
2018-01-26T15:34:45.338Z,7.67
2018-01-26T15:37:12.817Z,5.97
2018-01-26T15:39:40.269Z,6.80
2018-01-26T15:42:07.725Z,8.50
2018-01-26T15:44:35.190Z,6.03
2018-01-26T15:47:02.692Z,7.43
2018-01-26T15:49:30.933Z,7.23
2018-01-26T15:51:58.396Z,6.60
2018-01-26T15:54:25.901Z,8.20
2018-01-26T15:56:53.369Z,6.67
2018-01-26T15:59:20.825Z,7.33
2018-01-26T16:01:48.277Z,6.60
2018-01-26T16:04:15.734Z,7.03
2018-01-26T16:06:43.202Z,7.77
2018-01-26T16:09:10.657Z,6.40
2018-01-26T16:11:38.126Z,7.10
2018-01-26T16:14:05.585Z,7.47
2018-01-26T16:16:33.057Z,8.53
2018-01-26T16:19:00.519Z,7.13
2018-01-26T16:21:27.972Z,6.87
2018-01-26T16:23:55.438Z,8.00
2018-01-26T16:26:22.889Z,7.80
2018-01-26T16:28:51.111Z,6.70
2018-01-26T16:31:18.591Z,7.63
2018-01-26T16:33:46.058Z,6.50
2018-01-26T16:36:13.492Z,6.37
2018-01-26T16:38:41.185Z,7.30
2018-01-26T16:41:08.664Z,8.00
2018-01-26T16:43:36.123Z,7.33
2018-01-26T16:46:03.577Z,8.20
2018-01-26T16:48:31.044Z,9.83
2018-01-26T16:50:58.493Z,8.17
2018-01-26T16:53:25.949Z,6.17
2018-01-26T16:55:53.405Z,9.10
2018-01-26T16:58:20.853Z,7.57
2018-01-26T17:00:48.329Z,9.10
2018-01-26T17:03:15.785Z,7.73
2018-01-26T17:05:43.242Z,8.70
2018-01-26T17:08:10.694Z,8.07
2018-01-26T17:10:38.172Z,7.00
2018-01-26T17:13:05.618Z,8.40
2018-01-26T17:15:33.073Z,8.17
2018-01-26T17:18:00.529Z,8.20
2018-01-26T17:20:27.984Z,8.90
2018-01-26T17:22:55.453Z,8.50
2018-01-26T17:25:22.901Z,7.97
2018-01-26T17:27:50.356Z,7.97
2018-01-26T17:30:17.824Z,7.77
2018-01-26T17:32:47.908Z,6.83
2018-01-26T17:35:15.397Z,7.00
2018-01-26T17:37:42.849Z,8.03
2018-01-26T17:40:10.308Z,7.13
2018-01-26T17:42:39.273Z,7.67
2018-01-26T17:45:06.728Z,6.90
2018-01-26T17:47:34.933Z,8.20
2018-01-26T17:50:02.402Z,7.67
2018-01-26T17:52:29.854Z,7.37
2018-01-26T17:54:57.332Z,7.83
2018-01-26T17:57:25.545Z,9.33
2018-01-26T17:59:53.006Z,7.73
2018-01-26T18:02:20.469Z,9.50
2018-01-26T18:04:47.926Z,7.20
2018-01-26T18:07:15.403Z,8.27
2018-01-26T18:09:42.867Z,7.63
2018-01-26T18:12:10.364Z,9.17
2018-01-26T18:14:37.825Z,7.03
2018-01-26T18:17:05.300Z,9.60
2018-01-26T18:19:32.772Z,8.83
2018-01-26T18:22:00.233Z,9.03
2018-01-26T18:24:27.677Z,7.90
2018-01-26T18:26:55.133Z,8.83
2018-01-26T18:29:22.585Z,8.00
2018-01-26T18:31:50.043Z,7.20
2018-01-26T18:34:17.529Z,11.00
2018-01-26T18:36:45.007Z,9.60
2018-01-26T18:39:12.468Z,8.63
2018-01-26T18:41:40.701Z,8.63
2018-01-26T18:44:08.914Z,9.80
2018-01-26T18:46:36.381Z,9.30
2018-01-26T18:49:04.602Z,9.40
2018-01-26T18:51:32.053Z,8.70
2018-01-26T18:53:59.512Z,9.13
2018-01-26T18:56:26.963Z,10.63
2018-01-26T18:58:54.445Z,8.17
2018-01-26T19:01:21.901Z,9.00
2018-01-26T19:03:49.362Z,9.40
2018-01-26T19:06:16.817Z,10.30
2018-01-26T19:08:44.268Z,8.87
2018-01-26T19:11:11.735Z,8.97
2018-01-26T19:13:39.189Z,8.50
2018-01-26T19:16:06.645Z,9.30
2018-01-26T19:18:39.958Z,9.43
2018-01-26T19:21:07.414Z,8.37
2018-01-26T19:23:35.630Z,7.40
2018-01-26T19:26:03.086Z,13.17
2018-01-26T19:28:31.313Z,8.30
2018-01-26T19:30:58.764Z,9.90
2018-01-26T19:33:26.228Z,8.90
2018-01-26T19:35:53.671Z,10.00
2018-01-26T19:38:21.131Z,10.00
2018-01-26T19:40:48.576Z,9.03
2018-01-26T19:43:16.048Z,8.23
2018-01-26T19:45:43.501Z,8.60
2018-01-26T19:48:10.961Z,9.17
2018-01-26T19:50:38.413Z,10.50
2018-01-26T19:53:05.884Z,9.30
2018-01-26T19:55:33.341Z,8.30
2018-01-26T19:58:00.801Z,7.67
2018-01-26T20:00:28.254Z,9.73
2018-01-26T20:02:55.688Z,7.93
2018-01-26T20:05:40.653Z,11.00
2018-01-26T20:08:34.368Z,7.10
2018-01-26T20:11:01.821Z,8.53
2018-01-26T20:13:29.277Z,9.40
2018-01-26T20:16:00.085Z,10.63
2018-01-26T20:18:27.552Z,7.60
2018-01-26T20:20:54.998Z,9.23
2018-01-26T20:23:22.457Z,11.20
2018-01-26T20:25:49.917Z,9.13
2018-01-26T20:28:17.376Z,9.20
2018-01-26T20:30:44.825Z,8.20
2018-01-26T20:33:12.280Z,8.47
2018-01-26T20:38:14.402Z,8.60
2018-01-26T20:40:46.276Z,8.50
2018-01-26T20:43:13.717Z,9.43
2018-01-26T20:45:41.202Z,10.17
2018-01-26T20:48:09.424Z,9.90
2018-01-26T20:50:36.884Z,10.60
2018-01-26T20:53:04.324Z,7.87
2018-01-26T20:55:31.793Z,9.03
2018-01-26T20:57:59.326Z,9.40
2018-01-26T21:00:26.801Z,9.97
2018-01-26T21:02:55.007Z,9.37
2018-01-26T21:05:22.539Z,8.53
2018-01-26T21:07:49.997Z,8.80
2018-01-26T21:10:17.494Z,9.30
2018-01-26T21:12:44.956Z,8.87
2018-01-26T21:15:12.412Z,11.67
2018-01-26T21:17:39.873Z,8.87
2018-01-26T21:20:07.329Z,8.17
2018-01-26T21:22:34.785Z,6.83
2018-01-26T21:25:02.253Z,9.83
2018-01-26T21:27:29.702Z,10.60
2018-01-26T21:29:57.928Z,10.23
2018-01-26T21:32:25.375Z,9.63
2018-01-26T21:34:53.596Z,9.47
2018-01-26T21:37:21.052Z,7.87
2018-01-26T21:39:48.508Z,8.53
2018-01-26T21:42:15.957Z,7.60
2018-01-26T21:44:43.401Z,9.40
2018-01-26T21:47:10.863Z,8.37
2018-01-26T21:49:38.317Z,8.90
2018-01-26T21:52:05.820Z,8.60
2018-01-26T21:54:33.276Z,7.63
2018-01-26T21:57:01.492Z,8.27
2018-01-26T21:59:28.954Z,10.23
2018-01-26T22:01:56.413Z,9.67
2018-01-26T22:04:23.922Z,9.33
2018-01-26T22:06:57.074Z,7.70
2018-01-26T22:09:24.524Z,9.17
2018-01-26T22:11:51.999Z,9.13
2018-01-26T22:14:19.493Z,8.33
2018-01-26T22:16:47.716Z,9.47
2018-01-26T22:19:15.174Z,8.83
2018-01-26T22:21:42.638Z,8.47
2018-01-26T22:24:10.122Z,7.67
2018-01-26T22:26:38.366Z,8.37
2018-01-26T22:29:05.817Z,9.53
2018-01-26T22:31:33.284Z,9.37
2018-01-26T22:34:00.730Z,7.93
2018-01-26T22:36:28.189Z,8.97
2018-01-26T22:38:55.645Z,7.87
2018-01-26T22:41:23.103Z,9.67
2018-01-26T22:43:50.565Z,8.67
2018-01-26T22:46:18.019Z,6.77
2018-01-26T22:48:45.492Z,8.80
2018-01-26T22:51:12.973Z,11.63
2018-01-26T22:53:40.440Z,9.00
2018-01-26T22:56:07.881Z,7.10
2018-01-26T22:58:35.364Z,9.60
2018-01-26T23:01:03.589Z,8.60
2018-01-26T23:03:31.052Z,7.23
2018-01-26T23:05:58.510Z,8.23
2018-01-26T23:08:25.981Z,9.10
2018-01-26T23:10:53.433Z,7.97
2018-01-26T23:13:20.890Z,9.40
2018-01-26T23:15:48.348Z,9.17
2018-01-26T23:18:15.817Z,13.00
2018-01-26T23:20:43.273Z,8.73
2018-01-26T23:23:10.736Z,9.53
2018-01-26T23:25:38.176Z,8.50
2018-01-26T23:28:05.642Z,8.90
2018-01-26T23:30:33.097Z,6.60
2018-01-26T23:33:00.549Z,9.27
2018-01-26T23:35:27.996Z,9.67
2018-01-26T23:37:55.473Z,7.70
2018-01-26T23:40:24.690Z,7.30
2018-01-26T23:42:52.139Z,6.83
2018-01-26T23:45:19.595Z,7.73
2018-01-26T23:47:47.057Z,8.77
2018-01-26T23:50:14.509Z,9.10
2018-01-26T23:52:41.953Z,8.10
2018-01-26T23:55:09.413Z,10.53
2018-01-26T23:57:36.881Z,8.93
